Time;durP1;ratioP1;P1;durP2;ratioP2;P2;SDS_P1;SDS_P2;PMS_P1;PMS_P2;Temp;Humidity;BMP_temperature;BMP_pressure;BME280_temperature;BME280_humidity;BME280_pressure;Samples;Min_cycle;Max_cycle;Signal;HPM_P1;HPM_P2
2022/03/11 00:01:38;;;;;;;9.38;4.47;;;7.20;41.70;;;;;;6229932;28;20050;-81
2022/03/11 00:04:40;;;;;;;6.55;3.53;;;7.00;41.70;;;;;;6226704;28;20054;-81
2022/03/11 00:07:42;;;;;;;16.08;6.03;;;6.90;42.00;;;;;;6226952;28;20049;-81
2022/03/11 00:10:44;;;;;;;12.43;6.70;;;6.90;42.90;;;;;;6228010;28;20050;-81
2022/03/11 00:13:45;;;;;;;11.38;3.95;;;6.70;43.70;;;;;;6226720;28;20418;-81
2022/03/11 00:16:49;;;;;;;14.60;5.38;;;6.60;43.20;;;;;;6226920;28;20050;-81
2022/03/11 00:19:50;;;;;;;10.13;4.32;;;6.50;43.80;;;;;;6227380;28;20056;-82
2022/03/11 00:22:53;;;;;;;10.95;4.10;;;6.30;43.80;;;;;;6227363;28;20136;-80
2022/03/11 00:25:54;;;;;;;9.32;4.47;;;6.10;44.10;;;;;;6227645;28;20125;-80
2022/03/11 00:28:56;;;;;;;13.38;3.70;;;6.10;44.60;;;;;;6228851;28;20500;-81
2022/03/11 00:31:59;;;;;;;12.35;4.90;;;5.90;45.40;;;;;;6228901;28;20062;-81
2022/03/11 00:35:01;;;;;;;8.60;3.90;;;5.80;45.50;;;;;;6227473;28;20132;-81
2022/03/11 00:38:03;;;;;;;10.38;3.88;;;5.80;45.60;;;;;;6226767;28;20050;-81
2022/03/11 00:41:05;;;;;;;8.90;3.55;;;5.70;46.00;;;;;;6227179;28;20052;-81
2022/03/11 00:44:07;;;;;;;9.48;3.35;;;5.60;46.20;;;;;;6227083;28;20054;-81
2022/03/11 00:47:10;;;;;;;7.72;3.42;;;5.50;46.20;;;;;;6227553;28;20510;-80
2022/03/11 00:50:12;;;;;;;8.07;3.65;;;5.40;46.20;;;;;;6227359;28;20060;-82
2022/03/11 00:53:14;;;;;;;8.63;4.07;;;5.40;46.20;;;;;;6226120;28;20456;-81
2022/03/11 00:56:16;;;;;;;9.15;3.83;;;5.40;46.50;;;;;;6226511;28;20045;-81
2022/03/11 00:59:18;;;;;;;7.22;3.60;;;5.20;46.70;;;;;;6225879;28;20046;-81
2022/03/11 01:02:21;;;;;;;12.38;3.95;;;5.20;47.10;;;;;;6225865;28;20422;-80
2022/03/11 01:05:23;;;;;;;6.35;3.38;;;5.10;47.90;;;;;;6225459;28;20050;-81
2022/03/11 01:08:24;;;;;;;9.48;4.18;;;5.00;48.30;;;;;;6225637;28;20054;-81
2022/03/11 01:11:26;;;;;;;12.65;5.05;;;4.90;48.40;;;;;;6225634;28;20057;-81
2022/03/11 01:14:28;;;;;;;18.30;4.95;;;4.90;48.90;;;;;;6225375;28;20046;-82
2022/03/11 01:17:31;;;;;;;8.77;3.60;;;4.90;48.90;;;;;;6222941;28;20049;-80
2022/03/11 01:20:33;;;;;;;12.02;4.78;;;4.90;48.80;;;;;;6225297;28;20503;-81
2022/03/11 01:23:35;;;;;;;8.15;3.92;;;4.90;48.90;;;;;;6225165;28;20119;-80
2022/03/11 01:26:37;;;;;;;5.55;3.00;;;4.90;48.80;;;;;;6224833;28;20419;-81
2022/03/11 01:29:39;;;;;;;14.82;4.25;;;4.90;48.90;;;;;;6225026;28;20129;-80
2022/03/11 01:32:42;;;;;;;7.75;3.67;;;4.90;48.90;;;;;;6224908;28;20068;-80
2022/03/11 01:35:46;;;;;;;9.00;3.38;;;4.80;48.80;;;;;;6224384;28;20619;-82
2022/03/11 01:38:48;;;;;;;5.97;3.30;;;4.80;49.20;;;;;;6225091;28;20132;-82
2022/03/11 01:41:49;;;;;;;6.47;3.20;;;4.80;49.10;;;;;;6224512;28;20190;-81
2022/03/11 01:44:52;;;;;;;7.30;3.95;;;4.80;48.90;;;;;;6223851;28;20462;-81
2022/03/11 01:47:55;;;;;;;10.55;3.55;;;4.70;49.50;;;;;;6224264;28;20109;-82
2022/03/11 01:50:57;;;;;;;7.30;4.03;;;4.50;49.70;;;;;;6224858;28;20184;-82
2022/03/11 01:53:59;;;;;;;10.85;3.70;;;4.50;50.10;;;;;;6224535;28;20057;-82
2022/03/11 01:57:01;;;;;;;10.35;4.80;;;4.40;50.10;;;;;;6224166;28;20443;-82
2022/03/11 02:00:04;;;;;;;10.25;4.25;;;4.40;50.30;;;;;;6224326;28;20052;-82
2022/03/11 02:03:08;;;;;;;8.27;3.15;;;4.30;50.30;;;;;;6224675;28;20054;-82
2022/03/11 02:06:10;;;;;;;12.90;4.10;;;4.30;50.70;;;;;;6224890;28;20141;-82
2022/03/11 02:09:12;;;;;;;9.35;5.03;;;4.30;50.40;;;;;;6224286;28;20052;-83
2022/03/11 02:12:27;;;;;;;6.43;3.53;;;4.20;50.50;;;;;;6224267;28;20054;-82
2022/03/11 02:15:29;;;;;;;5.82;3.05;;;4.20;51.00;;;;;;6224232;28;20053;-82
2022/03/11 02:18:32;;;;;;;8.10;4.22;;;4.20;51.20;;;;;;6224223;28;20136;-83
2022/03/11 02:21:42;;;;;;;9.38;4.05;;;4.20;51.20;;;;;;6230769;28;20070;-82
2022/03/11 02:24:45;;;;;;;9.80;3.83;;;4.10;51.20;;;;;;6230861;28;20046;-83
2022/03/11 02:27:47;;;;;;;17.48;3.25;;;4.10;51.50;;;;;;6231555;28;20125;-84
2022/03/11 02:30:49;;;;;;;10.02;3.42;;;4.10;51.70;;;;;;6230442;28;20495;-84
2022/03/11 02:33:50;;;;;;;9.38;3.67;;;4.00;51.80;;;;;;6230382;28;20132;-83
2022/03/11 02:36:52;;;;;;;6.90;2.72;;;3.90;51.80;;;;;;6230975;28;20046;-83
2022/03/11 02:39:56;;;;;;;12.13;3.83;;;3.90;52.20;;;;;;6230301;28;20089;-84
2022/03/11 02:42:58;;;;;;;6.70;3.50;;;3.80;52.40;;;;;;6230568;28;20054;-83
2022/03/11 02:46:00;;;;;;;10.88;4.32;;;3.80;52.80;;;;;;6230195;28;20121;-83
2022/03/11 02:49:02;;;;;;;10.52;3.58;;;3.90;53.10;;;;;;6230364;28;20049;-83
2022/03/11 02:52:04;;;;;;;10.85;3.60;;;3.80;53.00;;;;;;6229791;28;20042;-84
2022/03/11 02:55:08;;;;;;;5.90;3.17;;;3.80;53.10;;;;;;6229618;28;20042;-84
2022/03/11 02:58:10;;;;;;;7.93;3.15;;;3.80;53.30;;;;;;6228572;28;20054;-84
2022/03/11 03:01:12;;;;;;;9.15;3.80;;;3.70;53.40;;;;;;6227446;28;20076;-83
2022/03/11 03:04:14;;;;;;;7.25;3.60;;;3.60;53.70;;;;;;6227183;28;20133;-82
2022/03/11 03:07:15;;;;;;;8.77;3.72;;;3.60;54.50;;;;;;6228064;28;20041;-82
2022/03/11 03:10:19;;;;;;;7.82;2.60;;;3.60;54.30;;;;;;6228091;28;20415;-83
2022/03/11 03:13:20;;;;;;;11.27;3.60;;;3.60;54.50;;;;;;6228425;28;20077;-82
2022/03/11 03:16:22;;;;;;;11.57;3.67;;;3.60;55.10;;;;;;6227806;28;20124;-82
2022/03/11 03:19:24;;;;;;;9.75;3.33;;;3.60;55.60;;;;;;6227720;28;20050;-82
2022/03/11 03:22:26;;;;;;;4.57;2.78;;;3.60;55.40;;;;;;6227412;28;20484;-83
2022/03/11 03:25:29;;;;;;;11.00;3.55;;;3.60;55.70;;;;;;6226647;28;20038;-83
2022/03/11 03:28:31;;;;;;;6.45;2.88;;;3.60;56.00;;;;;;6227345;28;20046;-82
2022/03/11 03:31:32;;;;;;;10.73;5.25;;;3.70;56.10;;;;;;6227357;28;20556;-83
2022/03/11 03:34:35;;;;;;;6.75;3.78;;;3.70;55.70;;;;;;6227315;28;20125;-83
2022/03/11 03:37:37;;;;;;;8.52;3.33;;;3.60;55.70;;;;;;6227416;28;20056;-81
2022/03/11 03:40:40;;;;;;;8.50;2.83;;;3.50;55.60;;;;;;6226478;28;20110;-82
2022/03/11 03:43:42;;;;;;;8.50;2.85;;;3.40;55.80;;;;;;6231320;28;20052;-83
2022/03/11 03:46:44;;;;;;;8.30;4.32;;;3.40;56.40;;;;;;6232180;28;20049;-83
2022/03/11 03:49:46;;;;;;;6.18;3.58;;;3.30;56.50;;;;;;6230667;28;20503;-82
2022/03/11 03:52:47;;;;;;;8.98;3.33;;;3.30;57.00;;;;;;6230731;28;20049;-82
2022/03/11 03:55:50;;;;;;;5.68;3.08;;;3.20;57.00;;;;;;6231334;28;20056;-83
2022/03/11 03:58:52;;;;;;;9.35;3.80;;;3.10;57.10;;;;;;6230957;28;20045;-82
2022/03/11 04:01:54;;;;;;;6.07;3.13;;;3.20;57.60;;;;;;6229749;28;20046;-82
2022/03/11 04:04:56;;;;;;;8.75;2.90;;;3.10;57.70;;;;;;6229239;28;20422;-81
2022/03/11 04:07:58;;;;;;;8.13;3.60;;;3.00;58.00;;;;;;6229624;28;20046;-82
2022/03/11 04:11:01;;;;;;;7.28;3.53;;;2.90;58.20;;;;;;6230414;28;20050;-83
2022/03/11 04:14:03;;;;;;;10.38;3.28;;;2.90;58.70;;;;;;6230317;28;20057;-83
2022/03/11 04:17:05;;;;;;;6.35;3.15;;;2.80;59.10;;;;;;6229779;28;20503;-81
2022/03/11 04:20:08;;;;;;;9.85;3.65;;;2.80;58.90;;;;;;6230046;28;20050;-82
2022/03/11 04:23:09;;;;;;;5.50;2.90;;;2.70;59.00;;;;;;6230012;28;20049;-83
2022/03/11 04:26:12;;;;;;;7.28;3.35;;;2.70;59.40;;;;;;6230165;28;20050;-82
2022/03/11 04:29:14;;;;;;;9.07;3.88;;;2.60;59.80;;;;;;6231553;28;20052;-82
2022/03/11 04:32:16;;;;;;;7.35;3.00;;;2.60;60.00;;;;;;6237320;28;20050;-83
2022/03/11 04:35:19;;;;;;;5.93;2.83;;;2.50;60.00;;;;;;6232402;28;20056;-83
2022/03/11 04:38:21;;;;;;;8.85;3.60;;;2.40;60.20;;;;;;6232873;28;20049;-82
2022/03/11 04:41:24;;;;;;;6.93;3.58;;;2.30;60.50;;;;;;6231969;28;20052;-82
2022/03/11 04:44:25;;;;;;;8.88;4.22;;;2.30;60.60;;;;;;6231242;28;20048;-80
2022/03/11 04:47:27;;;;;;;6.78;3.50;;;2.20;60.70;;;;;;6231978;28;20129;-83
2022/03/11 04:50:29;;;;;;;7.68;3.50;;;2.10;60.80;;;;;;6232180;28;20049;-83
2022/03/11 04:53:31;;;;;;;8.35;3.35;;;2.10;61.20;;;;;;6231064;28;20049;-82
2022/03/11 04:56:35;;;;;;;7.20;3.72;;;2.00;61.30;;;;;;6230426;28;20125;-81
2022/03/11 04:59:37;;;;;;;10.93;3.88;;;2.00;61.70;;;;;;6229521;28;20538;-81
2022/03/11 05:02:40;;;;;;;8.85;3.50;;;1.90;61.90;;;;;;6230440;28;20050;-82
2022/03/11 05:05:42;;;;;;;17.17;5.55;;;1.90;62.30;;;;;;6229178;28;20120;-82
2022/03/11 05:08:43;;;;;;;10.65;4.03;;;1.80;62.30;;;;;;6229424;28;20129;-81
2022/03/11 05:11:47;;;;;;;8.27;3.55;;;1.80;62.60;;;;;;6229090;28;20176;-82
2022/03/11 05:14:50;;;;;;;7.95;3.75;;;1.70;63.40;;;;;;6229783;28;20048;-82
2022/03/11 05:17:52;;;;;;;7.53;3.55;;;1.60;63.50;;;;;;6230025;28;20045;-83
2022/03/11 05:20:54;;;;;;;10.48;4.25;;;1.60;64.20;;;;;;6229437;28;20050;-84
2022/03/11 05:23:56;;;;;;;9.85;3.80;;;1.60;64.10;;;;;;6226925;28;20180;-83
2022/03/11 05:27:01;;;;;;;10.80;3.53;;;1.50;64.50;;;;;;6229677;28;20579;-82
2022/03/11 05:30:02;;;;;;;9.52;5.35;;;1.60;64.70;;;;;;6228140;28;20537;-83
2022/03/11 05:33:05;;;;;;;12.77;4.05;;;1.50;64.70;;;;;;6228005;28;20056;-82
2022/03/11 05:36:08;;;;;;;9.90;5.10;;;1.50;65.30;;;;;;6228106;28;20525;-83
2022/03/11 05:39:09;;;;;;;13.43;4.43;;;1.50;65.00;;;;;;6229129;28;20475;-83
2022/03/11 05:42:12;;;;;;;22.45;4.38;;;1.50;65.00;;;;;;6228723;28;20526;-84
2022/03/11 05:45:14;;;;;;;8.07;4.13;;;1.50;65.50;;;;;;6227398;28;20041;-83
2022/03/11 05:48:16;;;;;;;8.27;4.03;;;1.50;65.50;;;;;;6227753;28;20125;-82
2022/03/11 05:51:18;;;;;;;12.57;4.88;;;1.50;65.60;;;;;;6227671;28;20144;-83
2022/03/11 05:54:20;;;;;;;10.10;4.70;;;1.50;65.90;;;;;;6228056;28;20136;-80
2022/03/11 05:57:23;;;;;;;14.63;5.55;;;1.60;66.10;;;;;;6227238;28;20053;-84
2022/03/11 06:00:24;;;;;;;12.55;5.50;;;1.60;66.00;;;;;;6226433;28;20054;-83
2022/03/11 06:03:26;;;;;;;14.88;5.20;;;1.60;66.50;;;;;;6225899;28;20046;-84
2022/03/11 06:06:30;;;;;;;12.68;4.60;;;1.60;66.30;;;;;;6226986;28;20056;-84
2022/03/11 06:09:32;;;;;;;8.13;3.97;;;1.60;66.30;;;;;;6227219;28;20133;-83
2022/03/11 06:12:35;;;;;;;9.13;4.60;;;1.70;66.40;;;;;;6227371;28;20056;-84
2022/03/11 06:15:37;;;;;;;11.07;5.10;;;1.70;66.40;;;;;;6225377;28;20052;-83
2022/03/11 06:18:39;;;;;;;10.23;4.78;;;1.80;66.50;;;;;;6228233;28;20050;-81
2022/03/11 06:21:41;;;;;;;15.50;5.28;;;2.00;66.50;;;;;;6228151;28;20508;-84
2022/03/11 06:24:43;;;;;;;49.90;19.75;;;2.10;66.50;;;;;;6227265;28;20046;-81
2022/03/11 06:27:47;;;;;;;17.00;7.30;;;2.20;66.50;;;;;;6226670;28;20041;-84
2022/03/11 06:30:49;;;;;;;11.80;6.43;;;2.40;66.60;;;;;;6226548;28;20053;-83
2022/03/11 06:33:51;;;;;;;11.18;4.25;;;2.50;66.30;;;;;;6225282;28;20052;-84
2022/03/11 06:36:53;;;;;;;11.20;5.07;;;2.70;66.70;;;;;;6226289;28;20046;-82
2022/03/11 06:39:54;;;;;;;8.45;4.18;;;2.80;66.60;;;;;;6241385;28;20046;-83
2022/03/11 06:42:58;;;;;;;6.50;3.78;;;2.90;66.40;;;;;;6232495;28;20515;-82
2022/03/11 06:46:00;;;;;;;6.18;4.30;;;3.00;66.20;;;;;;6229823;28;20050;-83
2022/03/11 06:49:01;;;;;;;20.67;6.65;;;3.20;66.30;;;;;;6230844;28;20133;-83
2022/03/11 06:52:04;;;;;;;16.38;5.45;;;3.30;65.90;;;;;;6230264;28;20053;-82
2022/03/11 06:55:06;;;;;;;12.73;5.53;;;3.60;65.60;;;;;;6230024;28;20455;-84
2022/03/11 06:58:09;;;;;;;15.27;6.00;;;3.80;65.30;;;;;;6227472;28;20103;-82
2022/03/11 07:01:11;;;;;;;25.90;9.85;;;4.10;64.80;;;;;;6221965;28;20053;-81
2022/03/11 07:04:13;;;;;;;22.73;8.73;;;4.40;64.40;;;;;;6222168;28;20050;-82
2022/03/11 07:07:15;;;;;;;21.13;9.38;;;4.70;64.00;;;;;;6221647;28;20140;-81
2022/03/11 07:10:18;;;;;;;20.58;10.13;;;5.10;63.70;;;;;;6222431;28;20054;-82
2022/03/11 07:13:21;;;;;;;18.63;7.38;;;5.40;63.30;;;;;;6221471;28;20100;-82
2022/03/11 07:16:22;;;;;;;13.73;7.00;;;5.80;62.40;;;;;;6223517;28;20050;-83
2022/03/11 07:19:24;;;;;;;18.10;7.22;;;6.10;61.70;;;;;;6231271;28;20053;-82
2022/03/11 07:22:26;;;;;;;16.35;7.65;;;6.50;60.50;;;;;;6227264;28;20080;-82
2022/03/11 07:25:28;;;;;;;20.55;7.32;;;6.90;59.60;;;;;;6227350;28;20038;-83
2022/03/11 07:28:31;;;;;;;12.13;5.55;;;7.40;59.10;;;;;;6227653;28;20419;-82
2022/03/11 07:31:34;;;;;;;16.70;6.68;;;7.80;56.30;;;;;;6228018;28;20522;-83
2022/03/11 07:34:36;;;;;;;18.63;7.45;;;8.10;55.40;;;;;;6230681;28;20058;-82
2022/03/11 07:37:39;;;;;;;14.57;7.97;;;8.50;53.70;;;;;;6231165;28;20049;-81
2022/03/11 07:40:41;;;;;;;15.00;7.40;;;8.80;51.90;;;;;;6229564;28;20042;-81
2022/03/11 07:43:46;;;;;;;15.70;7.88;;;9.10;50.80;;;;;;6228329;28;20511;-81
2022/03/11 07:46:47;;;;;;;17.33;8.27;;;9.30;50.00;;;;;;6227549;28;20046;-81
2022/03/11 07:49:49;;;;;;;12.30;6.47;;;9.60;48.50;;;;;;6227106;28;20183;-80
2022/03/11 07:52:51;;;;;;;13.70;6.68;;;9.80;48.10;;;;;;6228750;28;20060;-79
2022/03/11 07:55:53;;;;;;;16.38;8.73;;;10.40;47.10;;;;;;6227778;28;20050;-79
2022/03/11 07:58:57;;;;;;;11.55;6.32;;;11.60;45.40;;;;;;6230116;28;20081;-80
2022/03/11 08:01:59;;;;;;;14.73;6.68;;;13.20;41.40;;;;;;6228601;28;20057;-80
2022/03/11 08:05:02;;;;;;;13.50;6.93;;;14.60;38.40;;;;;;6229849;28;20120;-81
2022/03/11 08:08:05;;;;;;;14.68;6.38;;;16.00;36.50;;;;;;6229726;28;20048;-81
2022/03/11 08:11:08;;;;;;;13.80;6.88;;;17.20;33.80;;;;;;6231919;28;20061;-81
2022/03/11 08:14:11;;;;;;;13.35;7.65;;;18.10;32.40;;;;;;6229597;28;20045;-80
2022/03/11 08:17:13;;;;;;;17.85;9.93;;;18.80;31.50;;;;;;6227928;28;20056;-80
2022/03/11 08:20:15;;;;;;;19.75;8.65;;;19.50;30.30;;;;;;6228992;28;20045;-80
2022/03/11 08:23:17;;;;;;;14.77;8.43;;;19.80;29.30;;;;;;6256845;22;20590;-81
2022/03/11 08:26:19;;;;;;;14.25;9.05;;;19.70;29.10;;;;;;6283138;28;20208;-81
2022/03/11 08:29:24;;;;;;;13.55;7.28;;;19.60;29.20;;;;;;6282608;28;20118;-81
2022/03/11 08:32:26;;;;;;;11.32;6.75;;;18.70;29.50;;;;;;6280638;28;20520;-82
2022/03/11 08:35:28;;;;;;;18.48;8.10;;;17.40;30.60;;;;;;6279975;28;20045;-81
2022/03/11 08:38:30;;;;;;;15.02;7.63;;;16.90;31.90;;;;;;6280287;28;20049;-82
2022/03/11 08:41:32;;;;;;;16.15;7.18;;;17.10;31.60;;;;;;6280264;28;20539;-82
2022/03/11 08:44:35;;;;;;;13.63;7.93;;;17.80;31.00;;;;;;6279844;28;20045;-82
2022/03/11 08:47:37;;;;;;;11.55;7.50;;;19.10;29.90;;;;;;6280758;28;20047;-81
2022/03/11 08:50:39;;;;;;;17.23;10.68;;;20.40;28.70;;;;;;6280152;28;20060;-82
2022/03/11 08:53:41;;;;;;;22.17;15.98;;;21.20;27.90;;;;;;6279920;28;20045;-82
2022/03/11 08:56:42;;;;;;;18.55;10.93;;;21.50;27.00;;;;;;6280016;28;20071;-82
2022/03/11 08:59:46;;;;;;;18.02;8.35;;;21.10;27.00;;;;;;6279704;28;20045;-82
2022/03/11 09:02:48;;;;;;;17.73;8.68;;;20.70;27.60;;;;;;6276392;28;20112;-81
2022/03/11 09:05:50;;;;;;;13.20;7.95;;;20.90;27.50;;;;;;6275508;28;20051;-82
2022/03/11 09:08:51;;;;;;;12.52;8.00;;;21.10;27.20;;;;;;6277002;28;20103;-82
2022/03/11 09:11:53;;;;;;;12.50;8.07;;;21.30;27.20;;;;;;6275925;28;20095;-82
2022/03/11 09:14:57;;;;;;;16.85;8.52;;;21.30;26.70;;;;;;6275930;28;20079;-82
2022/03/11 09:17:59;;;;;;;14.50;8.00;;;21.30;26.90;;;;;;6276516;28;20044;-80
2022/03/11 09:21:01;;;;;;;15.10;7.70;;;21.60;26.40;;;;;;6275977;28;20513;-79
2022/03/11 09:24:03;;;;;;;12.32;7.85;;;21.50;26.50;;;;;;6276890;28;20045;-79
2022/03/11 09:27:05;;;;;;;15.48;7.10;;;21.90;26.30;;;;;;6277869;28;20059;-80
2022/03/11 09:30:09;;;;;;;14.90;7.40;;;21.40;26.20;;;;;;6276588;28;20124;-80
2022/03/11 09:33:11;;;;;;;10.63;7.05;;;20.90;26.70;;;;;;6275248;28;20175;-80
2022/03/11 09:36:13;;;;;;;14.13;6.88;;;20.60;26.90;;;;;;6275690;28;20047;-80
2022/03/11 09:39:15;;;;;;;12.80;7.13;;;19.80;27.20;;;;;;6275355;28;20159;-79
2022/03/11 09:42:17;;;;;;;11.65;7.88;;;19.10;28.10;;;;;;6277348;28;20057;-82
2022/03/11 09:45:23;;;;;;;14.25;7.28;;;18.50;28.00;;;;;;6276850;28;20068;-81
2022/03/11 09:48:25;;;;;;;16.80;7.20;;;17.70;28.60;;;;;;6263402;28;20163;-81
2022/03/11 09:51:27;;;;;;;15.57;7.75;;;17.00;29.90;;;;;;6270222;28;20041;-79
2022/03/11 09:54:29;;;;;;;11.00;7.72;;;17.00;30.00;;;;;;6250614;28;20080;-79
2022/03/11 09:57:31;;;;;;;11.38;7.30;;;17.10;29.90;;;;;;6271725;28;20520;-79
2022/03/11 10:00:34;;;;;;;14.40;8.02;;;16.90;29.60;;;;;;6274487;28;20055;-82
2022/03/11 10:03:37;;;;;;;13.23;7.32;;;16.20;30.50;;;;;;6274074;28;20652;-82
2022/03/11 10:06:40;;;;;;;14.73;7.53;;;16.10;31.10;;;;;;6274715;28;20049;-79
2022/03/11 10:09:42;;;;;;;14.23;7.60;;;16.10;30.90;;;;;;6274755;28;20049;-78
2022/03/11 10:12:45;;;;;;;19.13;8.65;;;15.60;31.10;;;;;;6274558;28;20045;-78
2022/03/11 10:15:49;;;;;;;10.50;7.15;;;15.50;32.10;;;;;;6274085;28;20074;-78
2022/03/11 10:18:58;;;;;;;17.08;8.68;;;15.80;32.10;;;;;;6264663;28;20052;-78
2022/03/11 10:22:01;;;;;;;17.75;7.75;;;16.00;31.60;;;;;;6270355;28;20128;-79
2022/03/11 10:25:08;;;;;;;16.25;7.93;;;16.00;31.40;;;;;;6273112;28;20049;-80
2022/03/11 10:28:12;;;;;;;13.27;6.27;;;16.10;32.20;;;;;;6271992;28;20131;-78
2022/03/11 10:31:15;;;;;;;13.07;8.20;;;16.50;31.50;;;;;;6272348;28;20049;-78
2022/03/11 10:34:22;;;;;;;14.98;7.57;;;17.00;30.80;;;;;;6274174;28;20064;-79
2022/03/11 10:37:26;;;;;;;10.48;6.93;;;17.10;30.00;;;;;;6272873;28;20104;-80
2022/03/11 10:40:29;;;;;;;13.07;7.03;;;16.90;31.20;;;;;;6274147;28;20051;-79
2022/03/11 10:43:32;;;;;;;18.25;7.57;;;17.20;30.70;;;;;;6273310;28;20130;-78
2022/03/11 10:46:35;;;;;;;15.13;8.25;;;17.20;30.40;;;;;;6272986;28;20044;-78
2022/03/11 10:49:37;;;;;;;16.58;7.65;;;17.50;30.10;;;;;;6266105;28;20537;-78
2022/03/11 10:52:43;;;;;;;14.10;8.13;;;18.00;29.60;;;;;;6278097;28;20576;-78
2022/03/11 10:55:45;;;;;;;16.77;8.55;;;18.30;29.40;;;;;;6276805;28;20037;-79
2022/03/11 10:58:46;;;;;;;20.33;7.72;;;18.10;29.30;;;;;;6284310;28;20057;-81
2022/03/11 11:01:52;;;;;;;12.18;7.22;;;18.00;30.00;;;;;;6284737;28;20049;-80
2022/03/11 11:04:54;;;;;;;15.00;7.60;;;18.60;29.70;;;;;;6276978;28;20052;-80
2022/03/11 11:07:57;;;;;;;15.40;8.00;;;18.60;28.90;;;;;;6278529;28;20045;-81
2022/03/11 11:11:00;;;;;;;21.38;9.00;;;18.40;29.00;;;;;;6283942;28;20071;-80
2022/03/11 11:14:05;;;;;;;14.45;7.13;;;18.50;28.90;;;;;;6280122;28;20147;-81
2022/03/11 11:17:11;;;;;;;14.80;7.25;;;18.80;29.20;;;;;;6277868;28;20045;-80
2022/03/11 11:20:19;;;;;;;15.45;6.85;;;19.00;28.60;;;;;;6270329;28;20049;-79
2022/03/11 11:23:25;;;;;;;12.50;7.15;;;18.90;29.00;;;;;;6277793;28;20127;-80
2022/03/11 11:26:28;;;;;;;15.77;7.32;;;19.20;28.70;;;;;;6292500;28;20049;-80
2022/03/11 11:29:32;;;;;;;12.27;6.32;;;19.40;28.40;;;;;;6290066;28;20045;-80
2022/03/11 11:32:38;;;;;;;12.02;8.50;;;19.80;28.00;;;;;;6290611;28;20117;-80
2022/03/11 11:35:41;;;;;;;15.77;6.80;;;20.10;28.30;;;;;;6280610;28;20564;-80
2022/03/11 11:38:46;;;;;;;13.30;7.15;;;20.50;27.30;;;;;;6279396;28;20175;-80
2022/03/11 11:41:56;;;;;;;13.38;7.60;;;20.00;27.40;;;;;;6278503;28;20045;-80
2022/03/11 11:44:58;;;;;;;15.55;7.30;;;19.70;27.90;;;;;;6277242;28;20090;-80
2022/03/11 11:48:01;;;;;;;16.30;8.35;;;19.60;27.90;;;;;;6269253;28;20110;-80
2022/03/11 11:51:04;;;;;;;12.27;7.75;;;19.80;28.00;;;;;;6253692;28;20060;-79
2022/03/11 11:54:09;;;;;;;10.35;6.45;;;20.00;27.70;;;;;;6252657;28;20149;-80
2022/03/11 11:57:23;;;;;;;17.45;7.35;;;19.80;27.80;;;;;;6251850;28;20128;-80
2022/03/11 12:00:34;;;;;;;17.15;8.27;;;20.00;27.80;;;;;;6252542;28;20087;-80
2022/03/11 12:03:50;;;;;;;17.77;8.55;;;20.40;27.50;;;;;;6257925;28;20051;-80
2022/03/11 12:07:00;;;;;;;11.93;7.47;;;20.40;27.30;;;;;;6277393;28;20052;-80
2022/03/11 12:10:28;;;;;;;13.52;7.43;;;20.30;27.80;;;;;;6276847;28;20041;-79
2022/03/11 12:13:34;;;;;;;13.07;6.60;;;20.60;27.40;;;;;;6277137;28;20052;-80
2022/03/11 12:17:06;;;;;;;21.20;7.43;;;20.80;27.20;;;;;;6276886;28;20087;-80
2022/03/11 12:20:48;;;;;;;30.25;6.95;;;21.00;26.70;;;;;;6278351;28;20045;-80
2022/03/11 12:23:50;;;;;;;14.88;6.78;;;20.70;27.10;;;;;;6200074;28;20121;-80
2022/03/11 12:26:53;;;;;;;11.30;6.18;;;20.80;27.10;;;;;;6200967;28;20076;-80
2022/03/11 12:30:08;;;;;;;11.57;6.28;;;21.40;26.80;;;;;;6278662;28;20044;-82
2022/03/11 12:33:11;;;;;;;11.80;6.88;;;21.90;26.00;;;;;;6276238;28;20505;-80
2022/03/11 12:36:15;;;;;;;17.67;5.75;;;21.90;26.20;;;;;;6277278;28;20041;-80
2022/03/11 12:39:18;;;;;;;13.45;6.32;;;22.10;25.80;;;;;;6276688;28;20056;-80
2022/03/11 12:42:36;;;;;;;11.27;6.60;;;21.90;26.10;;;;;;6277579;28;20056;-80
2022/03/11 12:45:41;;;;;;;13.48;7.88;;;21.50;25.90;;;;;;6276726;28;20143;-80
2022/03/11 12:48:45;;;;;;;17.20;6.53;;;20.90;25.90;;;;;;6267805;28;20525;-80
2022/03/11 12:51:47;;;;;;;11.65;6.28;;;20.70;26.60;;;;;;6276763;28;20628;-80
2022/03/11 12:54:48;;;;;;;13.93;7.88;;;20.50;26.50;;;;;;6276520;28;20045;-80
2022/03/11 12:57:52;;;;;;;11.90;6.28;;;20.20;26.80;;;;;;6276048;28;20098;-81
2022/03/11 13:00:55;;;;;;;11.38;6.90;;;20.20;26.80;;;;;;6276134;28;20377;-80
2022/03/11 13:03:57;;;;;;;17.70;7.72;;;20.00;26.80;;;;;;6276617;28;20528;-80
2022/03/11 13:07:01;;;;;;;15.32;6.65;;;19.90;27.00;;;;;;6274808;28;20082;-81
2022/03/11 13:10:15;;;;;;;10.10;5.57;;;20.20;27.00;;;;;;6274400;28;20049;-80
2022/03/11 13:13:20;;;;;;;10.52;6.30;;;20.10;26.70;;;;;;6274911;28;20076;-83
2022/03/11 13:16:23;;;;;;;13.48;6.22;;;19.70;27.00;;;;;;6274601;28;20501;-80
2022/03/11 13:19:24;;;;;;;12.35;6.72;;;19.50;27.30;;;;;;6270183;28;20044;-80
2022/03/11 13:22:27;;;;;;;14.93;6.88;;;19.60;28.00;;;;;;6278365;28;20073;-83
2022/03/11 13:25:30;;;;;;;9.52;5.72;;;19.70;27.20;;;;;;6276521;28;20470;-82
2022/03/11 13:28:37;;;;;;;23.55;6.20;;;19.90;27.40;;;;;;6276857;28;20059;-81
2022/03/11 13:31:39;;;;;;;9.23;5.75;;;19.90;27.40;;;;;;6263020;28;20827;-80
2022/03/11 13:34:41;;;;;;;14.10;7.05;;;19.60;27.50;;;;;;6274897;28;20110;-80
2022/03/11 13:37:43;;;;;;;11.15;6.32;;;19.40;27.60;;;;;;6276608;28;20128;-80
2022/03/11 13:40:51;;;;;;;13.77;5.68;;;19.20;27.40;;;;;;6275025;28;20071;-81
2022/03/11 13:44:06;;;;;;;11.85;5.32;;;19.00;27.80;;;;;;6275244;28;20048;-83
2022/03/11 13:47:10;;;;;;;17.42;6.25;;;18.90;28.20;;;;;;6276496;28;20104;-81
2022/03/11 13:50:13;;;;;;;10.63;5.43;;;18.80;28.10;;;;;;6267254;28;20130;-79
2022/03/11 13:53:27;;;;;;;9.48;5.10;;;18.80;28.00;;;;;;6274559;28;20045;-81
2022/03/11 13:56:37;;;;;;;10.35;5.72;;;18.90;28.20;;;;;;6275631;28;20049;-80
2022/03/11 13:59:40;;;;;;;11.18;5.50;;;18.90;28.30;;;;;;6276406;28;20059;-83
2022/03/11 14:02:42;;;;;;;10.52;5.93;;;19.00;28.20;;;;;;6276340;28;20104;-82
2022/03/11 14:05:45;;;;;;;11.15;7.03;;;19.00;28.00;;;;;;6276618;28;20051;-83
2022/03/11 14:08:50;;;;;;;8.98;5.82;;;19.20;28.70;;;;;;6277705;28;20051;-80
2022/03/11 14:11:55;;;;;;;14.63;7.20;;;19.10;27.80;;;;;;6278052;28;20049;-81
2022/03/11 14:15:07;;;;;;;15.80;5.75;;;18.70;27.90;;;;;;6272893;28;20056;-82
2022/03/11 14:18:12;;;;;;;11.05;5.40;;;18.70;28.20;;;;;;6273895;28;20045;-82
2022/03/11 14:21:14;;;;;;;10.18;5.18;;;18.40;28.30;;;;;;6251077;28;20041;-82
2022/03/11 14:24:16;;;;;;;14.43;5.93;;;18.20;28.30;;;;;;6249022;28;20053;-81
2022/03/11 14:27:18;;;;;;;11.73;5.75;;;18.00;28.70;;;;;;6246462;28;20052;-79
2022/03/11 14:30:22;;;;;;;15.55;6.63;;;18.00;28.70;;;;;;6248447;28;20053;-80
2022/03/11 14:33:27;;;;;;;9.52;6.15;;;18.20;29.00;;;;;;6264227;28;20048;-79
2022/03/11 14:36:28;;;;;;;13.80;6.13;;;18.40;28.70;;;;;;6271365;28;20049;-80
2022/03/11 14:39:30;;;;;;;13.90;6.18;;;18.60;28.60;;;;;;6272143;28;20511;-80
2022/03/11 14:42:35;;;;;;;10.48;6.10;;;18.60;28.50;;;;;;6273024;28;20049;-79
2022/03/11 14:45:38;;;;;;;9.60;6.03;;;18.50;28.70;;;;;;6273170;28;20052;-79
2022/03/11 14:48:40;;;;;;;13.32;6.00;;;18.30;28.60;;;;;;6267166;28;20042;-80
2022/03/11 14:51:42;;;;;;;12.75;5.68;;;18.20;28.80;;;;;;6247935;28;20600;-79
2022/03/11 14:54:44;;;;;;;12.77;6.25;;;18.00;28.90;;;;;;6246492;28;20855;-80
2022/03/11 14:57:46;;;;;;;15.30;6.47;;;17.90;29.10;;;;;;6246589;28;20045;-81
2022/03/11 15:00:49;;;;;;;12.88;6.20;;;17.80;29.30;;;;;;6247751;28;20052;-80
2022/03/11 15:03:51;;;;;;;8.93;5.68;;;17.70;29.40;;;;;;6247287;28;20072;-80
2022/03/11 15:06:53;;;;;;;13.38;6.57;;;17.70;29.40;;;;;;6247587;28;20053;-80
2022/03/11 15:09:56;;;;;;;13.10;6.28;;;17.70;29.40;;;;;;6248206;28;20053;-81
2022/03/11 15:12:58;;;;;;;13.75;5.35;;;17.70;29.60;;;;;;6248536;28;20088;-81
2022/03/11 15:16:01;;;;;;;8.85;5.55;;;17.70;29.50;;;;;;6247033;28;20046;-80
2022/03/11 15:19:03;;;;;;;8.82;5.68;;;17.70;29.40;;;;;;6264094;28;20520;-80
2022/03/11 15:22:06;;;;;;;10.85;5.65;;;17.60;29.70;;;;;;6271981;28;20461;-82
2022/03/11 15:25:08;;;;;;;10.10;5.28;;;17.70;29.90;;;;;;6272434;28;20055;-78
2022/03/11 15:28:10;;;;;;;11.05;6.13;;;17.70;29.70;;;;;;6274991;28;20596;-80
2022/03/11 15:31:13;;;;;;;10.38;6.07;;;17.30;29.70;;;;;;6274675;28;20053;-80
2022/03/11 15:34:15;;;;;;;11.60;6.28;;;16.90;30.30;;;;;;6267260;28;20045;-82
2022/03/11 15:37:17;;;;;;;14.73;6.07;;;16.70;30.30;;;;;;6274469;28;20085;-80
2022/03/11 15:40:21;;;;;;;11.85;6.47;;;16.50;30.30;;;;;;6278229;28;20098;-80
2022/03/11 15:43:23;;;;;;;10.27;5.70;;;16.20;31.00;;;;;;6277815;28;20391;-79
2022/03/11 15:46:27;;;;;;;10.75;6.20;;;16.20;31.20;;;;;;6279429;28;20049;-81
2022/03/11 15:49:29;;;;;;;11.90;5.85;;;16.10;31.20;;;;;;6266702;28;20045;-81
2022/03/11 15:52:34;;;;;;;11.63;6.30;;;16.10;31.30;;;;;;6276040;28;20064;-81